Time;durP1;ratioP1;P1;durP2;ratioP2;P2;SDS_P1;SDS_P2;PMS_P1;PMS_P2;Temp;Humidity;BMP_temperature;BMP_pressure;BME280_temperature;BME280_humidity;BME280_pressure;Samples;Min_cycle;Max_cycle;Signal;HPM_P1;HPM_P2
2022/06/27 00:01:19;;;;;;;2.30;2.20;;;18.70;99.90;;;;;;4988084;28;20465;-84
2022/06/27 00:03:47;;;;;;;2.27;2.17;;;18.70;99.90;;;;;;4986027;28;20462;-84
2022/06/27 00:06:14;;;;;;;1.90;1.60;;;18.70;99.90;;;;;;4986498;28;20474;-83
2022/06/27 00:08:41;;;;;;;2.37;1.70;;;18.60;99.90;;;;;;4987464;28;20850;-83
2022/06/27 00:11:08;;;;;;;1.70;1.60;;;18.60;99.90;;;;;;4985318;28;20458;-84
2022/06/27 00:13:35;;;;;;;1.47;1.37;;;18.60;99.90;;;;;;4990394;28;20576;-84
2022/06/27 00:16:03;;;;;;;1.83;1.50;;;18.60;99.90;;;;;;4986945;28;20486;-84
2022/06/27 00:18:30;;;;;;;1.30;1.20;;;18.60;99.90;;;;;;4985110;28;20462;-84
2022/06/27 00:20:58;;;;;;;1.07;0.97;;;18.60;99.90;;;;;;4986608;28;20980;-84
2022/06/27 00:23:25;;;;;;;1.40;1.10;;;18.60;99.90;;;;;;4987888;28;20457;-84
2022/06/27 00:25:52;;;;;;;1.47;1.07;;;18.60;99.90;;;;;;4987102;28;20485;-84
2022/06/27 00:28:19;;;;;;;2.03;1.10;;;18.60;99.90;;;;;;4992765;28;20488;-85
2022/06/27 00:30:47;;;;;;;3.67;1.40;;;18.70;99.90;;;;;;4988977;28;20213;-84
2022/06/27 00:33:14;;;;;;;1.63;1.00;;;18.60;99.90;;;;;;4990601;28;20545;-84
2022/06/27 00:35:41;;;;;;;2.07;1.80;;;18.70;99.90;;;;;;4990947;28;20492;-84
2022/06/27 00:38:09;;;;;;;1.47;1.00;;;18.70;99.90;;;;;;4988787;28;20461;-83
2022/06/27 00:40:36;;;;;;;3.17;0.90;;;18.60;99.90;;;;;;4989144;28;20474;-81
2022/06/27 00:43:03;;;;;;;3.10;1.20;;;18.40;99.90;;;;;;4992418;28;20465;-81
2022/06/27 00:45:30;;;;;;;2.23;1.33;;;17.90;99.90;;;;;;4988752;28;20514;-81
2022/06/27 00:47:57;;;;;;;3.70;1.20;;;17.60;99.90;;;;;;4986957;28;20458;-81
2022/06/27 00:50:24;;;;;;;5.90;1.60;;;17.20;99.90;;;;;;4988245;28;20456;-80
2022/06/27 00:52:52;;;;;;;3.90;1.20;;;17.00;99.90;;;;;;4991113;28;20466;-82
2022/06/27 00:55:20;;;;;;;1.60;1.10;;;16.90;99.90;;;;;;4989774;28;20507;-80
2022/06/27 00:57:47;;;;;;;4.10;1.60;;;16.80;99.90;;;;;;4985899;28;20466;-80
2022/06/27 01:00:15;;;;;;;2.13;1.40;;;16.80;99.90;;;;;;4984188;28;20454;-80
2022/06/27 01:02:42;;;;;;;3.93;1.50;;;16.80;99.90;;;;;;4989787;28;20564;-80
2022/06/27 01:05:12;;;;;;;2.17;1.30;;;16.80;99.90;;;;;;4987920;28;20527;-81
2022/06/27 01:07:40;;;;;;;3.15;1.40;;;16.80;99.90;;;;;;4990820;28;20464;-81
2022/06/27 01:10:09;;;;;;;1.90;1.23;;;16.90;99.90;;;;;;4988484;28;20199;-81
2022/06/27 01:12:40;;;;;;;2.30;1.58;;;17.00;99.90;;;;;;4990050;28;20456;-82
2022/06/27 01:15:09;;;;;;;2.60;1.43;;;17.10;99.90;;;;;;4991033;28;20234;-82
2022/06/27 01:17:37;;;;;;;2.40;1.40;;;17.20;99.90;;;;;;4987185;28;20869;-83
2022/06/27 01:20:05;;;;;;;4.70;1.47;;;17.30;99.90;;;;;;4987537;28;20464;-82
2022/06/27 01:22:33;;;;;;;1.70;1.40;;;17.30;99.90;;;;;;4990094;28;20462;-82
2022/06/27 01:25:00;;;;;;;1.70;1.60;;;17.40;99.90;;;;;;4990304;28;20493;-83
2022/06/27 01:27:28;;;;;;;1.40;1.30;;;17.40;99.90;;;;;;4991713;28;20458;-83
2022/06/27 01:29:56;;;;;;;1.50;1.20;;;17.50;99.90;;;;;;4990103;28;21042;-83
2022/06/27 01:32:23;;;;;;;2.10;1.30;;;17.50;99.90;;;;;;4988373;28;20512;-82
2022/06/27 01:34:50;;;;;;;1.67;1.37;;;17.50;99.90;;;;;;4991419;28;20505;-82
2022/06/27 01:37:17;;;;;;;2.40;1.40;;;17.50;99.90;;;;;;4988922;28;20488;-82
2022/06/27 01:39:45;;;;;;;1.73;1.40;;;17.40;99.90;;;;;;4989382;28;20975;-82
2022/06/27 01:42:12;;;;;;;1.27;1.17;;;17.40;99.90;;;;;;4983677;28;20457;-83
2022/06/27 01:44:39;;;;;;;1.77;1.43;;;17.30;99.90;;;;;;4983566;28;21052;-83
2022/06/27 01:47:08;;;;;;;1.83;1.47;;;17.30;99.90;;;;;;4989836;28;20478;-83
2022/06/27 01:49:37;;;;;;;2.27;1.30;;;17.30;99.90;;;;;;4990457;28;20957;-83
2022/06/27 01:52:05;;;;;;;2.40;1.50;;;17.40;99.90;;;;;;4987670;28;20492;-82
2022/06/27 01:54:32;;;;;;;2.63;1.70;;;17.30;99.90;;;;;;4988965;28;20490;-83
2022/06/27 01:57:01;;;;;;;1.60;1.40;;;17.10;99.90;;;;;;4990081;28;20454;-82
2022/06/27 01:59:30;;;;;;;1.40;1.30;;;17.00;99.90;;;;;;4988665;28;20450;-83
2022/06/27 02:01:58;;;;;;;2.97;1.57;;;17.00;99.90;;;;;;4988350;28;20956;-83
2022/06/27 02:04:26;;;;;;;1.63;1.53;;;17.00;99.90;;;;;;4990119;28;20839;-83
2022/06/27 02:06:53;;;;;;;1.57;1.43;;;16.90;99.90;;;;;;4988547;28;20474;-82
2022/06/27 02:09:20;;;;;;;3.70;1.80;;;16.90;99.90;;;;;;4991261;28;20450;-82
2022/06/27 02:11:49;;;;;;;2.47;1.53;;;16.90;99.90;;;;;;4987801;28;21084;-82
2022/06/27 02:14:18;;;;;;;1.60;1.50;;;16.90;99.90;;;;;;4990848;28;20474;-82
2022/06/27 02:16:45;;;;;;;2.70;1.67;;;16.90;99.90;;;;;;4989007;28;20490;-83
2022/06/27 02:19:14;;;;;;;2.00;1.60;;;16.90;99.90;;;;;;4986842;28;20542;-82
2022/06/27 02:21:42;;;;;;;3.13;1.60;;;16.90;99.90;;;;;;4989097;28;21048;-82
2022/06/27 02:24:10;;;;;;;2.50;2.07;;;16.90;99.90;;;;;;4992197;28;20466;-82
2022/06/27 02:26:38;;;;;;;2.90;2.00;;;16.90;99.90;;;;;;4988782;28;20493;-82
2022/06/27 02:29:06;;;;;;;2.73;1.97;;;16.80;99.90;;;;;;4990926;28;20457;-82
2022/06/27 02:31:35;;;;;;;2.40;2.20;;;16.80;99.90;;;;;;4985775;28;20462;-82
2022/06/27 02:34:02;;;;;;;3.83;2.80;;;16.80;99.90;;;;;;4981988;28;20461;-82
2022/06/27 02:36:32;;;;;;;4.60;2.93;;;16.70;99.90;;;;;;4988228;28;20465;-82
2022/06/27 02:39:02;;;;;;;3.13;2.67;;;16.70;99.90;;;;;;4990376;28;20520;-82
2022/06/27 02:41:33;;;;;;;3.70;3.37;;;16.70;99.90;;;;;;4987410;28;20454;-83
2022/06/27 02:44:03;;;;;;;4.60;3.33;;;16.70;99.90;;;;;;4988261;28;20456;-82
2022/06/27 02:46:30;;;;;;;5.63;3.40;;;16.70;99.90;;;;;;4986663;28;20462;-82
2022/06/27 02:49:00;;;;;;;4.50;3.40;;;16.70;99.90;;;;;;4978503;28;20477;-83
2022/06/27 02:51:31;;;;;;;3.50;3.20;;;16.70;99.90;;;;;;4988782;28;20524;-83
2022/06/27 02:54:03;;;;;;;3.80;3.00;;;16.70;99.90;;;;;;4987926;28;20458;-82
2022/06/27 02:56:30;;;;;;;3.97;3.00;;;16.70;99.90;;;;;;4991079;28;20965;-83
2022/06/27 02:59:04;;;;;;;4.00;3.20;;;16.70;99.90;;;;;;4988431;28;20492;-83
2022/06/27 03:01:32;;;;;;;3.67;3.37;;;16.70;99.90;;;;;;4986355;28;20458;-82
2022/06/27 03:04:01;;;;;;;4.83;3.50;;;16.70;99.90;;;;;;4988125;28;20945;-82
2022/06/27 03:06:29;;;;;;;4.10;3.50;;;16.60;99.90;;;;;;4986171;28;20470;-82
2022/06/27 03:08:57;;;;;;;4.73;3.70;;;16.70;99.90;;;;;;4987556;28;20462;-82
2022/06/27 03:11:26;;;;;;;3.67;3.37;;;16.60;99.90;;;;;;4990499;28;20466;-82
2022/06/27 03:13:54;;;;;;;3.73;3.43;;;16.60;99.90;;;;;;4987377;28;20472;-82
2022/06/27 03:16:23;;;;;;;4.10;3.70;;;16.60;99.90;;;;;;4989079;28;20495;-82
2022/06/27 03:18:51;;;;;;;4.03;3.73;;;16.60;99.90;;;;;;4986312;28;20964;-82
2022/06/27 03:21:20;;;;;;;3.73;3.47;;;16.60;99.90;;;;;;4987160;28;20473;-82
2022/06/27 03:23:48;;;;;;;4.47;3.90;;;16.60;99.90;;;;;;4990977;28;20512;-82
2022/06/27 03:26:15;;;;;;;4.73;4.20;;;16.60;99.90;;;;;;4988189;28;20505;-82
2022/06/27 03:28:42;;;;;;;4.77;3.70;;;16.70;99.90;;;;;;4990195;28;20464;-82
2022/06/27 03:31:10;;;;;;;5.43;4.50;;;16.80;99.90;;;;;;4983160;28;20462;-83
2022/06/27 03:33:37;;;;;;;5.13;3.77;;;16.80;99.90;;;;;;4983686;28;20462;-83
2022/06/27 03:36:05;;;;;;;6.97;4.97;;;16.70;99.90;;;;;;4986702;28;20501;-83
2022/06/27 03:38:34;;;;;;;5.20;3.97;;;16.80;99.90;;;;;;4992542;28;20453;-83
2022/06/27 03:41:01;;;;;;;4.90;4.50;;;16.80;99.90;;;;;;4986280;28;20470;-83
2022/06/27 03:43:29;;;;;;;5.60;4.93;;;16.90;99.90;;;;;;4987296;28;20866;-83
2022/06/27 03:45:57;;;;;;;5.07;4.57;;;17.00;99.90;;;;;;4985756;28;20486;-83
2022/06/27 03:51:10;;;;;;;5.10;4.70;;;17.00;99.90;;;;;;4987823;28;20472;-83
2022/06/27 03:53:38;;;;;;;4.50;4.10;;;17.00;99.90;;;;;;4989880;28;20465;-83
2022/06/27 03:56:06;;;;;;;4.23;3.93;;;17.00;99.90;;;;;;4987293;28;20817;-83
2022/06/27 03:58:33;;;;;;;4.60;4.20;;;17.00;99.90;;;;;;4989301;28;20544;-81
2022/06/27 04:01:01;;;;;;;4.33;3.20;;;17.00;99.90;;;;;;4985540;28;20454;-79
2022/06/27 04:03:28;;;;;;;3.97;2.87;;;17.00;99.90;;;;;;4986903;28;20454;-79
2022/06/27 04:05:55;;;;;;;3.27;2.80;;;17.10;99.90;;;;;;4988910;28;21145;-80
2022/06/27 04:08:23;;;;;;;3.10;2.50;;;17.20;99.90;;;;;;4984018;28;20465;-78
2022/06/27 04:10:51;;;;;;;4.90;2.77;;;17.10;99.90;;;;;;4991707;28;20481;-78
2022/06/27 04:13:18;;;;;;;3.30;3.00;;;17.10;99.90;;;;;;4988226;28;20460;-79
2022/06/27 04:15:45;;;;;;;3.60;3.30;;;17.10;99.90;;;;;;4991366;28;20492;-79
2022/06/27 04:18:12;;;;;;;3.40;3.10;;;17.10;99.90;;;;;;4988647;28;20918;-78
2022/06/27 04:20:39;;;;;;;5.47;4.30;;;17.00;99.90;;;;;;4990541;28;20842;-79
2022/06/27 04:23:06;;;;;;;4.73;4.37;;;17.00;99.90;;;;;;4986952;28;20469;-79
2022/06/27 04:25:33;;;;;;;4.20;3.80;;;17.00;99.90;;;;;;4989792;28;20488;-79
2022/06/27 04:28:02;;;;;;;5.27;4.00;;;16.90;99.90;;;;;;4987523;28;20494;-79
2022/06/27 04:30:29;;;;;;;4.23;3.90;;;16.90;99.90;;;;;;4991816;28;20541;-79
2022/06/27 04:32:57;;;;;;;4.07;3.77;;;16.90;99.90;;;;;;4989776;28;20535;-79
2022/06/27 04:35:25;;;;;;;5.33;4.83;;;17.00;99.90;;;;;;4988900;28;20523;-78
2022/06/27 04:37:53;;;;;;;4.07;3.77;;;17.10;99.90;;;;;;4987351;28;20954;-79
2022/06/27 04:40:21;;;;;;;4.90;4.60;;;17.10;99.90;;;;;;4989080;28;20464;-78
2022/06/27 04:42:49;;;;;;;5.23;4.73;;;17.20;99.90;;;;;;4991137;28;20450;-79
2022/06/27 04:45:18;;;;;;;5.67;4.40;;;17.20;99.90;;;;;;4985035;28;20489;-79
2022/06/27 04:47:47;;;;;;;5.37;4.67;;;17.20;99.90;;;;;;4991048;28;20482;-78
2022/06/27 04:50:18;;;;;;;4.53;4.20;;;17.20;99.90;;;;;;4989646;28;20569;-78
2022/06/27 04:52:48;;;;;;;5.23;4.30;;;17.10;99.90;;;;;;4975413;28;20518;-80
2022/06/27 04:55:15;;;;;;;5.43;4.93;;;17.10;99.90;;;;;;4976912;28;20892;-78
2022/06/27 04:57:45;;;;;;;5.10;4.70;;;17.20;99.90;;;;;;4990514;28;20462;-79
2022/06/27 05:00:14;;;;;;;5.37;4.73;;;17.20;99.90;;;;;;4990288;28;20489;-79
2022/06/27 05:02:42;;;;;;;4.80;4.40;;;17.20;99.90;;;;;;4997498;28;20935;-78
2022/06/27 05:05:10;;;;;;;5.33;4.83;;;17.30;99.90;;;;;;4995946;28;20918;-78
2022/06/27 05:07:37;;;;;;;5.23;4.83;;;17.30;99.90;;;;;;4993370;28;20545;-79
2022/06/27 05:10:06;;;;;;;4.70;4.30;;;17.40;99.90;;;;;;4998077;28;20873;-81
2022/06/27 05:12:33;;;;;;;4.50;4.20;;;17.50;99.90;;;;;;4996142;28;20512;-78
2022/06/27 05:15:00;;;;;;;4.87;4.47;;;17.50;99.90;;;;;;4999935;28;20592;-78
2022/06/27 05:17:27;;;;;;;3.60;3.30;;;17.60;99.90;;;;;;4999980;28;20461;-78
2022/06/27 05:19:56;;;;;;;3.93;3.63;;;17.70;99.90;;;;;;5001762;28;20461;-79
2022/06/27 05:22:23;;;;;;;4.50;3.40;;;17.80;99.90;;;;;;5000864;28;21025;-79
2022/06/27 05:24:50;;;;;;;4.10;3.80;;;17.90;99.90;;;;;;4997136;28;20512;-79
2022/06/27 05:27:18;;;;;;;3.63;3.33;;;18.00;99.90;;;;;;4999636;28;20472;-79
2022/06/27 05:29:46;;;;;;;5.13;3.70;;;18.20;99.90;;;;;;4997527;28;20558;-78
2022/06/27 05:32:13;;;;;;;5.27;4.00;;;18.30;99.90;;;;;;4998169;28;20974;-78
2022/06/27 05:34:40;;;;;;;3.43;3.13;;;18.40;99.90;;;;;;5001821;28;20487;-79
2022/06/27 05:37:09;;;;;;;3.40;2.97;;;18.50;99.90;;;;;;4996216;28;21017;-79
2022/06/27 05:39:36;;;;;;;2.93;2.63;;;18.60;99.90;;;;;;4998177;28;20464;-79
2022/06/27 05:42:05;;;;;;;4.60;3.07;;;18.60;99.90;;;;;;5000926;28;20616;-79
2022/06/27 05:44:32;;;;;;;3.20;2.90;;;18.70;99.90;;;;;;4997612;28;20490;-79
2022/06/27 05:46:59;;;;;;;3.00;2.70;;;18.80;99.90;;;;;;4999470;28;20468;-79
2022/06/27 05:49:27;;;;;;;2.83;2.63;;;18.90;99.90;;;;;;5000776;28;20449;-79
2022/06/27 05:51:55;;;;;;;2.17;2.00;;;18.90;99.90;;;;;;4998982;28;20473;-79
2022/06/27 05:54:25;;;;;;;2.10;1.90;;;19.00;99.90;;;;;;4995597;28;21039;-79
2022/06/27 05:56:52;;;;;;;2.33;1.90;;;19.10;99.90;;;;;;5000210;28;20489;-79
2022/06/27 05:59:19;;;;;;;3.00;2.07;;;19.20;99.90;;;;;;4996876;28;20474;-79
2022/06/27 06:01:47;;;;;;;2.93;2.63;;;19.30;99.90;;;;;;5001105;28;20545;-78
2022/06/27 06:04:14;;;;;;;2.90;1.70;;;19.40;99.90;;;;;;4996861;28;20487;-78
2022/06/27 06:06:43;;;;;;;4.30;1.60;;;19.50;99.90;;;;;;5001521;28;20461;-78
2022/06/27 06:09:10;;;;;;;2.13;1.30;;;19.50;99.90;;;;;;4998163;28;20465;-78
2022/06/27 06:11:39;;;;;;;2.50;1.70;;;19.50;99.90;;;;;;4998608;28;20829;-78
2022/06/27 06:14:08;;;;;;;2.80;1.60;;;19.60;99.90;;;;;;5000479;28;20481;-79
2022/06/27 06:16:36;;;;;;;2.77;1.60;;;19.50;99.90;;;;;;4996171;28;20491;-78
2022/06/27 06:19:04;;;;;;;1.83;1.50;;;19.50;99.90;;;;;;4998287;28;20541;-78
2022/06/27 06:21:31;;;;;;;1.97;1.70;;;19.50;99.90;;;;;;4998166;28;20456;-78
2022/06/27 06:23:58;;;;;;;1.60;1.50;;;19.50;99.90;;;;;;4996224;28;20794;-79
2022/06/27 06:26:25;;;;;;;4.07;1.80;;;19.60;99.90;;;;;;4997352;28;20454;-78
2022/06/27 06:28:55;;;;;;;1.70;1.60;;;19.70;99.90;;;;;;4997464;28;20466;-78
2022/06/27 06:31:23;;;;;;;2.10;1.70;;;19.70;99.90;;;;;;4989838;28;20450;-79
2022/06/27 06:33:51;;;;;;;2.87;1.77;;;19.70;99.90;;;;;;4996479;28;20486;-78
2022/06/27 06:36:19;;;;;;;1.93;1.83;;;19.70;99.90;;;;;;4991620;28;20505;-79
2022/06/27 06:38:47;;;;;;;2.17;1.97;;;19.80;99.90;;;;;;4994647;28;20493;-78
2022/06/27 06:41:15;;;;;;;2.90;1.90;;;19.90;99.90;;;;;;4992443;28;20545;-78
2022/06/27 06:43:44;;;;;;;1.73;1.63;;;20.00;99.90;;;;;;4993787;28;20476;-79
2022/06/27 06:46:13;;;;;;;2.60;1.63;;;20.20;99.90;;;;;;5001265;28;20453;-79
2022/06/27 06:48:41;;;;;;;2.33;2.13;;;20.30;99.90;;;;;;4994367;28;20477;-79
2022/06/27 06:51:08;;;;;;;1.87;1.70;;;20.50;99.90;;;;;;4996525;28;20972;-78
2022/06/27 06:53:36;;;;;;;1.73;1.63;;;20.50;99.90;;;;;;4993670;28;20492;-78
2022/06/27 06:56:05;;;;;;;1.80;1.70;;;20.60;99.90;;;;;;4996167;28;20639;-79
2022/06/27 06:58:34;;;;;;;2.70;1.80;;;20.70;99.90;;;;;;4992950;28;20478;-79
2022/06/27 07:01:01;;;;;;;1.70;1.60;;;20.70;99.90;;;;;;4998983;28;20454;-79
2022/06/27 07:03:30;;;;;;;2.03;1.90;;;20.50;99.90;;;;;;4998913;28;20469;-79
2022/06/27 07:05:58;;;;;;;2.10;2.00;;;20.40;99.90;;;;;;4999506;28;20461;-79
2022/06/27 07:08:25;;;;;;;2.07;1.60;;;20.20;99.90;;;;;;4998238;28;20453;-79
2022/06/27 07:10:52;;;;;;;2.60;2.40;;;20.20;99.90;;;;;;4993917;28;20459;-79
2022/06/27 07:13:20;;;;;;;2.57;2.37;;;20.20;99.90;;;;;;4996845;28;20481;-79
2022/06/27 07:15:46;;;;;;;2.50;2.30;;;20.20;99.90;;;;;;4990116;28;20466;-79
2022/06/27 07:18:14;;;;;;;2.30;2.13;;;20.20;99.90;;;;;;4994947;28;20541;-79
2022/06/27 07:20:43;;;;;;;2.60;2.40;;;20.10;99.90;;;;;;4991496;28;20979;-79
2022/06/27 07:23:11;;;;;;;3.53;2.53;;;20.10;99.90;;;;;;4994808;28;21049;-79
2022/06/27 07:25:38;;;;;;;3.03;2.83;;;20.20;99.90;;;;;;4988297;28;20477;-79
2022/06/27 07:28:08;;;;;;;2.80;2.60;;;20.20;99.90;;;;;;4998545;28;20466;-79
2022/06/27 07:30:36;;;;;;;2.80;2.60;;;20.20;99.90;;;;;;4993372;28;21006;-79
2022/06/27 07:33:03;;;;;;;2.53;2.33;;;20.10;99.90;;;;;;4993473;28;20462;-79
2022/06/27 07:35:31;;;;;;;2.80;2.60;;;20.10;99.90;;;;;;4989025;28;20453;-79
2022/06/27 07:38:00;;;;;;;5.80;3.00;;;20.00;99.90;;;;;;4993620;28;20974;-79
2022/06/27 07:40:27;;;;;;;3.03;2.83;;;20.10;99.90;;;;;;4992912;28;20458;-79
2022/06/27 07:42:55;;;;;;;3.33;2.73;;;20.20;99.90;;;;;;4991309;28;20454;-79
2022/06/27 07:45:24;;;;;;;3.27;3.07;;;20.20;99.90;;;;;;4990480;28;20469;-78
2022/06/27 07:47:54;;;;;;;2.30;2.20;;;20.30;99.90;;;;;;4995645;28;20557;-79
2022/06/27 07:50:40;;;;;;;2.80;2.60;;;20.40;99.90;;;;;;4991587;28;20457;-79
2022/06/27 07:53:15;;;;;;;2.80;2.63;;;20.50;99.90;;;;;;4989089;28;20515;-79
2022/06/27 07:55:46;;;;;;;2.20;2.10;;;20.60;99.90;;;;;;4995590;28;20479;-79
2022/06/27 07:58:16;;;;;;;2.40;2.20;;;20.70;99.90;;;;;;4993008;28;20473;-79
2022/06/27 08:00:45;;;;;;;2.60;2.40;;;20.80;99.90;;;;;;4994571;28;20468;-80
2022/06/27 08:05:58;;;;;;;5.27;2.50;;;20.90;99.90;;;;;;4994348;28;20461;-80
2022/06/27 08:08:27;;;;;;;2.77;2.57;;;20.90;99.90;;;;;;4993321;28;20779;-79
2022/06/27 08:10:55;;;;;;;3.07;2.70;;;20.80;99.90;;;;;;4991696;28;20466;-80
2022/06/27 08:13:22;;;;;;;3.30;3.00;;;20.90;99.90;;;;;;4989383;28;20479;-79
2022/06/27 08:15:50;;;;;;;2.90;2.70;;;20.80;99.90;;;;;;4992062;28;20457;-79
2022/06/27 08:18:17;;;;;;;2.57;2.37;;;20.80;99.90;;;;;;4997030;28;20992;-79
2022/06/27 08:20:46;;;;;;;2.33;2.17;;;20.90;99.90;;;;;;4992042;28;20964;-79
2022/06/27 08:23:13;;;;;;;4.03;3.83;;;21.00;99.90;;;;;;4994464;28;20583;-79
2022/06/27 08:25:42;;;;;;;3.07;2.83;;;21.10;99.90;;;;;;4990491;28;20453;-80
2022/06/27 08:28:10;;;;;;;3.13;2.93;;;21.10;99.90;;;;;;4995083;28;20453;-79
2022/06/27 08:30:38;;;;;;;2.90;2.70;;;21.30;99.90;;;;;;4993063;28;20551;-79
2022/06/27 08:33:05;;;;;;;2.43;2.23;;;21.50;99.90;;;;;;4992252;28;20504;-80
2022/06/27 08:35:32;;;;;;;2.13;1.93;;;21.70;99.90;;;;;;4995601;28;20470;-79
2022/06/27 08:38:00;;;;;;;2.20;2.10;;;21.80;99.90;;;;;;4996033;28;20501;-80
2022/06/27 08:40:28;;;;;;;2.40;1.83;;;21.70;99.90;;;;;;4992694;28;20461;-79
2022/06/27 08:42:58;;;;;;;1.97;1.87;;;21.70;99.90;;;;;;4992892;28;20478;-80
2022/06/27 08:45:28;;;;;;;2.70;2.47;;;21.60;99.90;;;;;;4992359;28;20477;-80
2022/06/27 08:47:58;;;;;;;3.33;2.57;;;21.60;99.90;;;;;;4999050;28;20504;-83
2022/06/27 08:50:26;;;;;;;2.90;1.87;;;21.50;99.90;;;;;;4994151;28;20469;-82
2022/06/27 08:52:58;;;;;;;1.83;1.73;;;21.60;99.90;;;;;;4991178;28;20492;-82
2022/06/27 08:55:25;;;;;;;3.10;2.00;;;21.60;99.90;;;;;;4999247;28;20464;-82
2022/06/27 08:57:52;;;;;;;2.33;2.13;;;21.60;99.90;;;;;;4990549;28;20486;-82
2022/06/27 09:00:23;;;;;;;2.37;2.27;;;21.70;99.90;;;;;;4992429;28;20458;-82
2022/06/27 09:02:50;;;;;;;2.03;1.83;;;21.80;99.90;;;;;;4996722;28;20553;-82
2022/06/27 09:05:24;;;;;;;2.37;2.17;;;21.90;99.90;;;;;;4997870;28;20515;-82
2022/06/27 09:07:53;;;;;;;1.83;1.70;;;22.10;99.90;;;;;;4999407;28;20475;-82
2022/06/27 09:10:26;;;;;;;2.40;2.20;;;22.20;99.90;;;;;;4994129;28;20481;-82
2022/06/27 09:12:55;;;;;;;1.97;1.87;;;22.40;99.90;;;;;;4996773;28;20547;-83
2022/06/27 09:15:26;;;;;;;2.80;2.03;;;22.50;99.90;;;;;;4998880;28;20565;-81
2022/06/27 09:18:03;;;;;;;2.20;2.00;;;22.40;99.90;;;;;;5000283;28;20491;-82
2022/06/27 09:20:49;;;;;;;2.70;2.50;;;22.30;99.90;;;;;;4994272;28;20538;-82
2022/06/27 09:23:40;;;;;;;2.00;1.90;;;22.20;99.90;;;;;;4998805;28;20482;-82
2022/06/27 09:26:12;;;;;;;2.23;2.13;;;22.00;99.90;;;;;;4997797;28;20968;-82
2022/06/27 09:28:50;;;;;;;2.20;2.10;;;21.80;99.90;;;;;;4995962;28;20472;-82
2022/06/27 09:31:46;;;;;;;2.23;2.13;;;21.60;99.90;;;;;;4993387;28;20540;-82
2022/06/27 09:34:16;;;;;;;2.40;2.20;;;21.50;99.90;;;;;;4952661;28;20593;-82
2022/06/27 09:36:46;;;;;;;2.27;2.07;;;21.40;99.90;;;;;;4995203;28;20489;-82
2022/06/27 09:39:20;;;;;;;2.43;2.23;;;21.30;99.90;;;;;;4995665;28;20449;-80
2022/06/27 09:41:54;;;;;;;2.70;2.50;;;21.30;99.90;;;;;;4998040;28;21249;-81
2022/06/27 09:44:25;;;;;;;2.73;2.50;;;21.30;99.90;;;;;;4997622;28;20491;-80
2022/06/27 09:47:00;;;;;;;2.87;2.67;;;21.40;99.90;;;;;;4993549;28;20593;-81
2022/06/27 09:49:31;;;;;;;2.90;2.70;;;21.50;99.90;;;;;;4997189;28;20461;-81
2022/06/27 09:51:59;;;;;;;2.90;2.70;;;21.40;99.90;;;;;;4997043;28;20566;-81
2022/06/27 09:54:27;;;;;;;3.43;3.23;;;21.60;99.90;;;;;;4990555;28;20572;-81
2022/06/27 09:56:56;;;;;;;3.20;3.00;;;21.70;99.90;;;;;;4994781;28;20484;-78
2022/06/27 09:59:23;;;;;;;3.10;2.90;;;22.10;99.90;;;;;;4995792;28;20453;-80
2022/06/27 10:01:55;;;;;;;2.87;2.67;;;22.80;99.90;;;;;;4998938;28;20473;-82
2022/06/27 10:04:24;;;;;;;4.63;2.80;;;23.70;99.90;;;;;;4993870;28;20484;-81
2022/06/27 10:06:53;;;;;;;2.60;2.50;;;24.60;99.90;;;;;;4995515;28;20484;-81
2022/06/27 10:09:24;;;;;;;2.50;2.27;;;25.00;99.90;;;;;;4998595;28;20530;-83
2022/06/27 10:12:21;;;;;;;2.77;2.57;;;25.30;99.90;;;;;;4999283;28;20537;-82
2022/06/27 10:15:18;;;;;;;3.10;2.90;;;25.60;99.90;;;;;;4997377;28;20481;-83
2022/06/27 10:17:55;;;;;;;2.90;2.70;;;25.70;99.90;;;;;;4997203;28;20488;-82
2022/06/27 10:20:30;;;;;;;2.90;2.70;;;25.80;99.90;;;;;;4997539;28;20547;-86
2022/06/27 10:23:37;;;;;;;3.50;3.30;;;25.60;99.90;;;;;;4996032;28;20548;-79
2022/06/27 10:26:05;;;;;;;2.90;2.70;;;25.50;99.90;;;;;;4992826;28;20465;-79
2022/06/27 10:28:32;;;;;;;2.30;2.20;;;25.10;99.90;;;;;;4996821;28;20474;-79
2022/06/27 10:31:01;;;;;;;2.20;2.10;;;24.50;99.90;;;;;;4994863;28;20488;-80
2022/06/27 10:33:40;;;;;;;2.60;2.40;;;24.00;99.90;;;;;;4999192;28;20500;-78
2022/06/27 10:36:13;;;;;;;2.50;2.30;;;23.40;99.90;;;;;;4992042;28;21103;-78
2022/06/27 10:38:47;;;;;;;2.30;2.20;;;23.00;99.90;;;;;;4992286;28;20513;-78
2022/06/27 10:41:39;;;;;;;2.67;2.47;;;22.90;99.90;;;;;;4993880;28;20520;-79
2022/06/27 10:44:32;;;;;;;2.70;2.50;;;22.60;99.90;;;;;;4991286;28;20569;-81
2022/06/27 10:47:00;;;;;;;3.00;2.80;;;22.50;99.90;;;;;;4997565;28;20540;-79
2022/06/27 10:49:31;;;;;;;2.57;2.47;;;22.50;99.90;;;;;;4989768;28;20461;-79
2022/06/27 10:52:34;;;;;;;2.50;2.10;;;22.70;99.90;;;;;;4994905;28;20528;-79
2022/06/27 10:55:02;;;;;;;2.07;1.97;;;23.10;99.90;;;;;;4991472;28;20477;-78
2022/06/27 10:57:44;;;;;;;2.40;2.20;;;23.30;99.90;;;;;;4999555;28;20905;-80
2022/06/27 11:00:36;;;;;;;2.37;2.23;;;23.50;99.90;;;;;;4998248;28;20468;-81
2022/06/27 11:03:04;;;;;;;2.00;1.90;;;23.50;99.90;;;;;;4985848;28;21000;-87
2022/06/27 11:05:52;;;;;;;2.13;1.93;;;23.50;99.90;;;;;;4992575;28;20517;-83
2022/06/27 11:08:20;;;;;;;1.90;1.80;;;23.50;99.90;;;;;;4999361;28;20461;-86
2022/06/27 11:10:48;;;;;;;2.17;2.07;;;23.70;99.90;;;;;;4990379;28;20454;-82
2022/06/27 11:13:43;;;;;;;2.40;2.07;;;24.00;99.90;;;;;;4994772;28;20477;-84
2022/06/27 11:16:14;;;;;;;3.13;2.30;;;24.50;99.90;;;;;;4995671;28;20457;-83
2022/06/27 11:18:43;;;;;;;2.40;2.20;;;25.50;99.90;;;;;;4997203;28;21014;-81
2022/06/27 11:21:12;;;;;;;2.80;1.90;;;26.10;99.90;;;;;;4995564;28;20454;-82
2022/06/27 11:23:54;;;;;;;1.90;1.80;;;26.60;99.90;;;;;;4995019;28;21004;-82
2022/06/27 11:26:23;;;;;;;1.90;1.80;;;26.80;99.90;;;;;;4995061;28;20461;-82
2022/06/27 11:34:34;;;;;;;2.23;2.00;;;25.90;99.90;;;;;;4907808;29;20461;-81
2022/06/27 11:37:04;;;;;;;1.73;1.63;;;25.10;99.90;;;;;;4975446;28;21303;-85
2022/06/27 11:39:34;;;;;;;2.30;2.20;;;25.20;99.90;;;;;;4996432;28;20561;-80
2022/06/27 11:42:03;;;;;;;2.27;2.10;;;25.30;99.90;;;;;;4992994;28;20496;-83
2022/06/27 11:44:30;;;;;;;2.50;2.30;;;25.20;99.90;;;;;;4989331;28;20880;-82
2022/06/27 11:47:05;;;;;;;2.83;2.20;;;25.10;99.90;;;;;;4996754;28;20454;-82
2022/06/27 11:49:35;;;;;;;2.70;2.50;;;25.20;99.90;;;;;;4992763;28;20454;-84
2022/06/27 11:52:05;;;;;;;2.60;2.40;;;25.00;99.90;;;;;;4992925;28;20857;-82
2022/06/27 11:54:40;;;;;;;2.60;2.40;;;24.70;99.90;;;;;;4992136;28;21036;-82
2022/06/27 11:57:22;;;;;;;2.93;2.73;;;24.40;99.90;;;;;;4995505;28;20541;-81
2022/06/27 11:59:50;;;;;;;2.83;2.60;;;24.20;99.90;;;;;;4991384;28;20461;-81
2022/06/27 12:02:27;;;;;;;3.40;3.10;;;23.90;99.90;;;;;;4995385;28;20924;-88
2022/06/27 12:05:04;;;;;;;3.00;2.73;;;23.80;99.90;;;;;;4993366;28;20543;-85
2022/06/27 12:07:33;;;;;;;3.87;3.20;;;23.50;99.90;;;;;;4991518;28;20841;-85
2022/06/27 12:10:00;;;;;;;4.27;3.17;;;23.40;99.90;;;;;;4998183;28;20464;-85
2022/06/27 12:12:29;;;;;;;2.80;2.60;;;23.20;99.90;;;;;;4996849;28;20481;-91
2022/06/27 12:14:56;;;;;;;3.03;2.83;;;23.10;99.90;;;;;;4993091;28;20501;-88
2022/06/27 12:17:24;;;;;;;2.70;2.50;;;23.10;99.90;;;;;;4996722;28;20850;-83
2022/06/27 12:20:01;;;;;;;3.00;2.70;;;23.10;99.90;;;;;;4994396;28;20461;-82
2022/06/27 12:22:28;;;;;;;3.10;2.87;;;22.90;99.90;;;;;;4993251;28;20485;-82
2022/06/27 12:24:57;;;;;;;2.70;2.50;;;22.90;99.90;;;;;;4997486;28;21261;-81
2022/06/27 12:27:24;;;;;;;2.60;2.40;;;23.00;99.90;;;;;;5003090;28;20461;-81
2022/06/27 12:29:51;;;;;;;2.63;2.43;;;23.00;99.90;;;;;;4993201;28;20516;-81
2022/06/27 12:32:18;;;;;;;3.30;2.73;;;23.00;99.90;;;;;;5000069;28;20495;-80
2022/06/27 12:34:45;;;;;;;2.40;2.30;;;22.80;99.90;;;;;;4990175;28;20458;-81
2022/06/27 12:37:12;;;;;;;2.80;2.60;;;22.70;99.90;;;;;;4998404;28;20823;-81
2022/06/27 12:39:39;;;;;;;2.77;2.57;;;22.70;99.90;;;;;;4998995;28;20470;-83
2022/06/27 12:42:08;;;;;;;2.30;2.20;;;22.70;99.90;;;;;;4998409;28;20857;-90
2022/06/27 12:44:35;;;;;;;2.70;2.50;;;22.50;99.90;;;;;;5000583;28;20482;-83
2022/06/27 12:47:03;;;;;;;2.50;2.30;;;22.50;99.90;;;;;;4994650;28;20470;-85
2022/06/27 12:49:30;;;;;;;3.87;2.90;;;22.40;99.90;;;;;;4997550;28;20458;-84
2022/06/27 12:51:57;;;;;;;2.47;2.30;;;22.40;99.90;;;;;;4991417;28;21208;-85
2022/06/27 12:54:24;;;;;;;2.77;2.57;;;22.40;99.90;;;;;;4996166;28;20539;-84
2022/06/27 12:56:51;;;;;;;2.17;2.07;;;22.40;99.90;;;;;;4994703;28;20453;-84
2022/06/27 12:59:19;;;;;;;2.30;2.20;;;22.40;99.90;;;;;;4996793;28;20493;-84
2022/06/27 13:01:46;;;;;;;2.93;1.90;;;22.40;99.90;;;;;;4994123;28;20465;-84
2022/06/27 13:04:13;;;;;;;1.97;1.87;;;22.30;99.90;;;;;;4990576;28;20473;-85
2022/06/27 13:06:40;;;;;;;2.27;2.17;;;22.30;99.90;;;;;;4996717;28;20798;-84
2022/06/27 13:09:07;;;;;;;2.20;2.10;;;22.30;99.90;;;;;;4993226;28;20486;-83
2022/06/27 13:11:34;;;;;;;2.07;1.87;;;22.30;99.90;;;;;;4990448;28;20812;-83